createdAt,value
2017-10-01T00:00:13.251Z,974.95
2017-10-01T00:01:13.526Z,974.98
2017-10-01T00:02:13.138Z,974.95
2017-10-01T00:03:13.080Z,974.95
2017-10-01T00:04:13.104Z,974.96
2017-10-01T00:05:13.428Z,974.99
2017-10-01T00:06:13.416Z,974.98
2017-10-01T00:07:13.371Z,975.00
2017-10-01T00:08:13.548Z,974.97
2017-10-01T00:09:13.406Z,974.99
2017-10-01T00:10:13.595Z,974.99
2017-10-01T00:11:13.560Z,974.97
2017-10-01T00:12:13.599Z,974.93
2017-10-01T00:13:13.794Z,974.92
2017-10-01T00:14:13.845Z,974.93
2017-10-01T00:15:14.079Z,974.94
2017-10-01T00:16:14.051Z,974.92
2017-10-01T00:17:14.023Z,974.94
2017-10-01T00:18:14.081Z,974.93
2017-10-01T00:19:14.191Z,974.90
2017-10-01T00:20:14.135Z,974.95
2017-10-01T00:21:14.399Z,974.94
2017-10-01T00:22:14.204Z,974.94
2017-10-01T00:23:14.176Z,974.92
2017-10-01T00:24:14.449Z,974.94
2017-10-01T00:25:14.148Z,974.92
2017-10-01T00:26:14.687Z,974.94
2017-10-01T00:27:14.267Z,974.92
2017-10-01T00:28:14.327Z,974.91
2017-10-01T00:29:14.387Z,974.92
2017-10-01T00:30:14.847Z,974.94
2017-10-01T00:31:14.694Z,974.96
2017-10-01T00:32:14.615Z,974.92
2017-10-01T00:33:15.263Z,974.94
2017-10-01T00:34:14.613Z,974.96
2017-10-01T00:35:14.612Z,974.94
2017-10-01T00:36:15.027Z,974.98
2017-10-01T00:37:15.066Z,974.94
2017-10-01T00:38:15.213Z,974.97
2017-10-01T00:39:15.540Z,974.96
2017-10-01T00:40:14.951Z,974.98
2017-10-01T00:41:14.988Z,975.01
2017-10-01T00:42:15.254Z,975.01
2017-10-01T00:43:15.362Z,975.00
2017-10-01T00:44:15.366Z,975.01
2017-10-01T00:45:15.211Z,974.99
2017-10-01T00:46:15.372Z,974.99
2017-10-01T00:47:15.562Z,974.98
2017-10-01T00:48:15.354Z,975.01
2017-10-01T00:49:15.656Z,974.99
2017-10-01T00:50:15.429Z,974.99
2017-10-01T00:51:15.586Z,975.02
2017-10-01T00:52:15.910Z,974.96
2017-10-01T00:53:15.982Z,975.01
2017-10-01T00:54:16.180Z,974.98
2017-10-01T00:55:15.572Z,975.01
2017-10-01T00:56:15.737Z,975.02
2017-10-01T00:57:16.190Z,974.99
2017-10-01T00:58:15.773Z,974.98
2017-10-01T00:59:16.032Z,975.02
2017-10-01T01:00:16.129Z,975.03
2017-10-01T01:01:16.239Z,975.03
2017-10-01T01:02:16.180Z,975.04
2017-10-01T01:03:16.444Z,975.05
2017-10-01T01:04:16.230Z,975.07
2017-10-01T01:05:15.861Z,975.04
2017-10-01T01:06:15.902Z,975.05
2017-10-01T01:07:15.953Z,975.05
2017-10-01T01:08:16.065Z,975.09
2017-10-01T01:09:16.054Z,975.09
2017-10-01T01:10:16.095Z,975.12
2017-10-01T01:11:16.145Z,975.10
2017-10-01T01:12:16.196Z,975.14
2017-10-01T01:13:16.312Z,975.13
2017-10-01T01:14:16.295Z,975.11
2017-10-01T01:15:16.337Z,975.11
2017-10-01T01:16:16.388Z,975.11
2017-10-01T01:17:16.438Z,975.14
2017-10-01T01:18:16.548Z,975.14
2017-10-01T01:19:16.534Z,975.13
2017-10-01T01:20:16.581Z,975.15
2017-10-01T01:21:16.629Z,975.15
2017-10-01T01:22:16.675Z,975.16
2017-10-01T01:23:16.800Z,975.12
2017-10-01T01:24:16.775Z,975.14
2017-10-01T01:25:16.822Z,975.12
2017-10-01T01:26:16.876Z,975.11
2017-10-01T01:27:16.918Z,975.11
2017-10-01T01:28:17.050Z,975.09
2017-10-01T01:29:17.016Z,975.13
2017-10-01T01:30:17.063Z,975.12
2017-10-01T01:31:17.114Z,975.12
2017-10-01T01:32:17.159Z,975.11
2017-10-01T01:33:17.288Z,975.17
2017-10-01T01:34:17.255Z,975.13
2017-10-01T01:35:17.305Z,975.14
2017-10-01T01:36:17.354Z,975.15
2017-10-01T01:37:17.404Z,975.13
2017-10-01T01:38:17.534Z,975.15
2017-10-01T01:39:17.497Z,975.14
2017-10-01T01:40:17.546Z,975.17
2017-10-01T01:41:17.595Z,975.16
2017-10-01T01:42:17.640Z,975.16
2017-10-01T01:43:17.768Z,975.18
2017-10-01T01:44:17.738Z,975.17
2017-10-01T01:45:17.788Z,975.17
2017-10-01T01:46:17.834Z,975.18
2017-10-01T01:47:17.883Z,975.16
2017-10-01T01:48:18.012Z,975.17
2017-10-01T01:49:17.980Z,975.14
2017-10-01T01:50:18.029Z,975.19
2017-10-01T01:51:18.073Z,975.16
2017-10-01T01:52:18.125Z,975.17
2017-10-01T01:53:18.235Z,975.19
2017-10-01T01:54:18.282Z,975.17
2017-10-01T01:55:18.268Z,975.16
2017-10-01T01:56:18.317Z,975.15
2017-10-01T01:57:18.367Z,975.17
2017-10-01T01:58:18.413Z,975.18
2017-10-01T01:59:18.533Z,975.17
2017-10-01T02:00:18.509Z,975.20
2017-10-01T02:01:18.558Z,975.16
2017-10-01T02:02:18.605Z,975.13
2017-10-01T02:03:18.654Z,975.12
2017-10-01T02:04:18.786Z,975.12
2017-10-01T02:05:18.752Z,975.12
2017-10-01T02:06:18.800Z,975.16
2017-10-01T02:07:18.846Z,975.15
2017-10-01T02:08:18.893Z,975.15
2017-10-01T02:09:19.009Z,975.16
2017-10-01T02:10:19.055Z,975.18
2017-10-01T02:11:19.041Z,975.18
2017-10-01T02:12:19.088Z,975.15
2017-10-01T02:13:19.136Z,975.19
2017-10-01T02:14:19.268Z,975.18
2017-10-01T02:15:19.234Z,975.16
2017-10-01T02:16:19.280Z,975.12
2017-10-01T02:17:19.329Z,975.14
2017-10-01T02:18:19.379Z,975.18
2017-10-01T02:19:19.504Z,975.19
2017-10-01T02:20:19.475Z,975.16
2017-10-01T02:21:19.526Z,975.18
2017-10-01T02:22:19.571Z,975.17
2017-10-01T02:23:19.617Z,975.19
2017-10-01T02:24:19.752Z,975.20
2017-10-01T02:25:19.716Z,975.20
2017-10-01T02:26:19.762Z,975.20
2017-10-01T02:27:19.812Z,975.21
2017-10-01T02:28:19.859Z,975.25
2017-10-01T02:29:19.982Z,975.24
2017-10-01T02:30:19.955Z,975.21
2017-10-01T02:31:20.004Z,975.25
2017-10-01T02:32:20.055Z,975.21
2017-10-01T02:33:20.106Z,975.20
2017-10-01T02:34:20.239Z,975.14
2017-10-01T02:35:20.199Z,975.16
2017-10-01T02:36:20.246Z,975.14
2017-10-01T02:37:20.290Z,975.12
2017-10-01T02:38:20.341Z,975.12
2017-10-01T02:39:20.466Z,975.13
2017-10-01T02:40:20.440Z,975.12
2017-10-01T02:41:20.488Z,975.09
2017-10-01T02:42:20.534Z,975.14
2017-10-01T02:43:20.584Z,975.15
2017-10-01T02:44:20.699Z,975.14
2017-10-01T02:45:20.680Z,975.15
2017-10-01T02:46:20.726Z,975.14
2017-10-01T02:47:20.775Z,975.13
2017-10-01T02:48:20.824Z,975.16
2017-10-01T02:49:20.946Z,975.12
2017-10-01T02:50:20.987Z,975.15
2017-10-01T02:51:20.965Z,975.16
2017-10-01T02:52:21.015Z,975.08
2017-10-01T02:53:21.064Z,975.19
2017-10-01T02:54:21.110Z,975.16
2017-10-01T02:55:21.223Z,975.16
2017-10-01T02:56:21.206Z,975.20
2017-10-01T02:57:21.258Z,975.17
2017-10-01T02:58:21.310Z,975.23
2017-10-01T02:59:21.351Z,975.20
2017-10-01T03:00:21.465Z,975.22
2017-10-01T03:01:21.450Z,975.21
2017-10-01T03:02:21.498Z,975.25
2017-10-01T03:03:21.543Z,975.26
2017-10-01T03:04:21.589Z,975.27
2017-10-01T03:05:21.716Z,975.24
2017-10-01T03:06:21.686Z,975.28
2017-10-01T03:07:21.741Z,975.30
2017-10-01T03:08:21.785Z,975.23
2017-10-01T03:09:21.834Z,975.29
2017-10-01T03:10:21.963Z,975.29
2017-10-01T03:11:21.938Z,975.29
2017-10-01T03:12:21.977Z,975.28
2017-10-01T03:13:22.026Z,975.27
2017-10-01T03:14:22.073Z,975.29
2017-10-01T03:15:22.206Z,975.28
2017-10-01T03:16:22.171Z,975.30
2017-10-01T03:17:22.221Z,975.28
2017-10-01T03:18:22.267Z,975.31
2017-10-01T03:19:22.317Z,975.29
2017-10-01T03:20:22.452Z,975.34
2017-10-01T03:21:22.413Z,975.31
2017-10-01T03:22:22.460Z,975.32
2017-10-01T03:23:22.509Z,975.37
2017-10-01T03:24:22.563Z,975.39
2017-10-01T03:25:22.670Z,975.39
2017-10-01T03:26:22.718Z,975.37
2017-10-01T03:27:22.702Z,975.37
2017-10-01T03:28:22.750Z,975.38
2017-10-01T03:29:22.800Z,975.37
2017-10-01T03:30:22.855Z,975.42
2017-10-01T03:31:22.959Z,975.40
2017-10-01T03:32:22.942Z,975.40
2017-10-01T03:33:22.995Z,975.41
2017-10-01T03:34:23.042Z,975.38
2017-10-01T03:35:23.087Z,975.35
2017-10-01T03:36:23.211Z,975.38
2017-10-01T03:37:23.184Z,975.36
2017-10-01T03:38:23.228Z,975.33
2017-10-01T03:39:23.282Z,975.34
2017-10-01T03:40:23.329Z,975.33
2017-10-01T03:41:23.463Z,975.33
2017-10-01T03:42:23.422Z,975.33
2017-10-01T03:43:23.473Z,975.32
2017-10-01T03:44:23.521Z,975.36
2017-10-01T03:45:23.572Z,975.34
2017-10-01T03:46:23.681Z,975.32
2017-10-01T03:47:23.732Z,975.29
2017-10-01T03:48:23.711Z,975.35
2017-10-01T03:49:23.762Z,975.36
2017-10-01T03:50:23.809Z,975.35
2017-10-01T03:51:23.858Z,975.41
2017-10-01T03:52:23.980Z,975.36
2017-10-01T03:53:23.954Z,975.37
2017-10-01T03:54:24.001Z,975.39
2017-10-01T03:55:24.051Z,975.42
2017-10-01T03:56:24.100Z,975.42
2017-10-01T03:57:24.226Z,975.43
2017-10-01T03:58:24.193Z,975.45
2017-10-01T03:59:24.243Z,975.46
2017-10-01T04:00:24.293Z,975.49
2017-10-01T04:01:24.339Z,975.50
2017-10-01T04:02:24.470Z,975.48
2017-10-01T04:03:24.434Z,975.52
2017-10-01T04:04:24.484Z,975.49
2017-10-01T04:05:24.531Z,975.48
2017-10-01T04:06:24.580Z,975.52
2017-10-01T04:07:24.704Z,975.48
2017-10-01T04:08:24.676Z,975.53
2017-10-01T04:09:24.723Z,975.50
2017-10-01T04:10:24.775Z,975.52
2017-10-01T04:11:24.824Z,975.53
2017-10-01T04:12:24.953Z,975.54
2017-10-01T04:13:24.915Z,975.50
2017-10-01T04:14:24.965Z,975.52
2017-10-01T04:15:25.016Z,975.54
2017-10-01T04:16:25.061Z,975.52
2017-10-01T04:17:25.181Z,975.52
2017-10-01T04:18:25.220Z,975.51
2017-10-01T04:19:25.203Z,975.54
2017-10-01T04:20:25.250Z,975.52
2017-10-01T04:21:25.302Z,975.51
2017-10-01T04:22:25.354Z,975.58
2017-10-01T04:23:25.461Z,975.57
2017-10-01T04:24:25.444Z,975.60
2017-10-01T04:25:25.493Z,975.58
2017-10-01T04:26:25.538Z,975.59
2017-10-01T04:27:25.587Z,975.64
2017-10-01T04:28:25.702Z,975.61
2017-10-01T04:29:25.686Z,975.64
2017-10-01T04:30:25.730Z,975.63
2017-10-01T04:31:25.779Z,975.65
2017-10-01T04:32:25.825Z,975.63
2017-10-01T04:33:25.941Z,975.63
2017-10-01T04:34:25.924Z,975.68
2017-10-01T04:35:25.971Z,975.66
2017-10-01T04:36:26.022Z,975.70
2017-10-01T04:37:26.069Z,975.68
2017-10-01T04:38:27.020Z,975.68
2017-10-01T04:39:26.163Z,975.70
2017-10-01T04:40:26.212Z,975.69
2017-10-01T04:41:26.262Z,975.71
2017-10-01T04:42:26.311Z,975.78
2017-10-01T04:43:26.437Z,975.75
2017-10-01T04:44:26.407Z,975.81
2017-10-01T04:45:26.454Z,975.83
2017-10-01T04:46:26.500Z,975.86
2017-10-01T04:47:26.558Z,975.86
2017-10-01T04:48:26.674Z,975.84
2017-10-01T04:49:26.646Z,975.84
2017-10-01T04:50:26.693Z,975.82
2017-10-01T04:51:26.739Z,975.87
2017-10-01T04:52:26.789Z,975.86
2017-10-01T04:53:26.923Z,975.81
2017-10-01T04:54:26.887Z,975.87
2017-10-01T04:55:26.934Z,975.85
2017-10-01T04:56:26.983Z,975.86
2017-10-01T04:57:27.033Z,975.90
2017-10-01T04:58:27.146Z,975.92
2017-10-01T04:59:27.192Z,975.92
2017-10-01T05:00:27.177Z,975.92
2017-10-01T05:01:27.230Z,975.94
2017-10-01T05:02:27.269Z,975.96
2017-10-01T05:03:27.321Z,975.91
2017-10-01T05:04:27.433Z,975.93
2017-10-01T05:05:27.416Z,975.97
2017-10-01T05:06:27.471Z,975.94
2017-10-01T05:07:27.513Z,975.97
2017-10-01T05:08:27.565Z,975.97
2017-10-01T05:09:27.686Z,975.98
2017-10-01T05:10:27.658Z,975.97
2017-10-01T05:11:27.710Z,975.99
2017-10-01T05:12:27.755Z,975.97
2017-10-01T05:13:27.801Z,975.93
2017-10-01T05:14:27.935Z,976.00
2017-10-01T05:15:27.906Z,975.96
2017-10-01T05:16:27.951Z,976.03
2017-10-01T05:17:27.997Z,975.99
2017-10-01T05:18:28.043Z,975.99
2017-10-01T05:19:28.171Z,975.95
2017-10-01T05:20:28.141Z,975.96
2017-10-01T05:21:28.191Z,975.98
2017-10-01T05:22:28.237Z,976.00
2017-10-01T05:23:28.284Z,975.99
2017-10-01T05:24:28.400Z,975.97
2017-10-01T05:25:28.446Z,975.97
2017-10-01T05:26:28.432Z,975.97
2017-10-01T05:27:28.479Z,975.98
2017-10-01T05:28:28.525Z,975.98
2017-10-01T05:29:28.638Z,975.97
2017-10-01T05:30:28.690Z,975.93
2017-10-01T05:31:28.670Z,975.97
2017-10-01T05:32:28.719Z,975.97
2017-10-01T05:33:28.766Z,975.97
2017-10-01T05:34:28.815Z,975.95
2017-10-01T05:35:28.928Z,975.98
2017-10-01T05:36:28.911Z,975.99
2017-10-01T05:37:28.961Z,976.00
2017-10-01T05:38:29.013Z,975.99
2017-10-01T05:39:29.054Z,975.96
2017-10-01T05:40:29.176Z,976.00
2017-10-01T05:41:29.153Z,975.95
2017-10-01T05:42:29.200Z,975.95
2017-10-01T05:43:29.249Z,975.97
2017-10-01T05:44:29.295Z,975.99
2017-10-01T05:45:29.409Z,975.99
2017-10-01T05:46:29.458Z,976.00
2017-10-01T05:47:29.444Z,976.04
2017-10-01T05:48:29.488Z,976.02
2017-10-01T05:49:29.537Z,975.99
2017-10-01T05:50:29.650Z,975.99
2017-10-01T05:51:30.378Z,976.04
2017-10-01T05:52:29.682Z,976.01
2017-10-01T05:53:29.726Z,976.02
2017-10-01T05:54:29.779Z,976.03
2017-10-01T05:55:29.828Z,976.01
2017-10-01T05:56:29.938Z,976.01
2017-10-01T05:57:29.924Z,976.01
2017-10-01T05:58:29.971Z,976.01
2017-10-01T05:59:30.020Z,976.06
2017-10-01T06:00:30.070Z,976.03
2017-10-01T06:01:30.185Z,976.03
2017-10-01T06:02:30.164Z,976.01
2017-10-01T06:03:30.212Z,976.02
2017-10-01T06:04:31.030Z,975.99
2017-10-01T06:05:30.309Z,975.98
2017-10-01T06:06:30.441Z,976.00
2017-10-01T06:07:30.404Z,976.00
2017-10-01T06:08:30.450Z,976.02
2017-10-01T06:09:30.503Z,976.00
2017-10-01T06:10:30.552Z,976.02
2017-10-01T06:11:30.660Z,976.06
2017-10-01T06:12:30.709Z,976.03
2017-10-01T06:13:30.695Z,976.03
2017-10-01T06:14:30.741Z,976.07
2017-10-01T06:15:30.788Z,976.05
2017-10-01T06:16:30.838Z,976.08
2017-10-01T06:17:30.951Z,976.07
2017-10-01T06:18:30.939Z,976.05
2017-10-01T06:19:30.983Z,976.10
2017-10-01T06:20:31.030Z,976.08
2017-10-01T06:21:31.079Z,976.06
2017-10-01T06:22:31.189Z,976.10
2017-10-01T06:23:31.177Z,976.08
2017-10-01T06:24:31.221Z,976.10
2017-10-01T06:25:31.271Z,976.07
2017-10-01T06:26:31.318Z,976.10
2017-10-01T06:27:31.460Z,976.12
2017-10-01T06:28:31.416Z,976.09
2017-10-01T06:29:31.460Z,976.11
2017-10-01T06:30:31.509Z,976.08
2017-10-01T06:31:31.556Z,976.11
2017-10-01T06:32:31.680Z,976.13
2017-10-01T06:33:31.652Z,976.11
2017-10-01T06:34:31.702Z,976.13
2017-10-01T06:35:31.751Z,976.14
2017-10-01T06:36:31.795Z,976.13
2017-10-01T06:37:31.906Z,976.11
2017-10-01T06:38:31.888Z,976.13
2017-10-01T06:39:31.942Z,976.11
2017-10-01T06:40:31.990Z,976.14
2017-10-01T06:41:32.036Z,976.12
2017-10-01T06:42:32.149Z,976.15
2017-10-01T06:43:32.196Z,976.18
2017-10-01T06:44:32.179Z,976.17
2017-10-01T06:45:32.232Z,976.19
2017-10-01T06:46:32.273Z,976.21
2017-10-01T06:47:32.324Z,976.20
2017-10-01T06:48:32.438Z,976.23
2017-10-01T06:49:32.421Z,976.27
2017-10-01T06:50:32.469Z,976.25
2017-10-01T06:51:32.525Z,976.25
2017-10-01T06:52:32.564Z,976.25
2017-10-01T06:53:32.680Z,976.24
2017-10-01T06:54:32.660Z,976.29
2017-10-01T06:55:32.706Z,976.29
2017-10-01T06:56:32.758Z,976.29
2017-10-01T06:57:32.806Z,976.31
2017-10-01T06:58:32.923Z,976.29
2017-10-01T06:59:32.895Z,976.37
2017-10-01T07:00:32.955Z,976.37
2017-10-01T07:01:32.997Z,976.31
2017-10-01T07:02:33.044Z,976.38
2017-10-01T07:03:33.170Z,976.38
2017-10-01T07:04:33.139Z,976.40
2017-10-01T07:05:33.187Z,976.40
2017-10-01T07:06:33.236Z,976.43
2017-10-01T07:07:33.280Z,976.41
2017-10-01T07:08:33.396Z,976.45
2017-10-01T07:09:33.444Z,976.41
2017-10-01T07:10:33.430Z,976.41
2017-10-01T07:11:33.480Z,976.42
2017-10-01T07:12:33.523Z,976.43
2017-10-01T07:13:33.570Z,976.47
2017-10-01T07:14:33.684Z,976.44
2017-10-01T07:15:33.667Z,976.47
2017-10-01T07:16:33.719Z,976.46
2017-10-01T07:17:33.763Z,976.48
2017-10-01T07:18:33.812Z,976.50
2017-10-01T07:19:33.930Z,976.52
2017-10-01T07:20:33.908Z,976.48
2017-10-01T07:21:33.960Z,976.51
2017-10-01T07:22:34.004Z,976.47
2017-10-01T07:23:34.050Z,976.51
2017-10-01T07:24:34.161Z,976.49
2017-10-01T07:25:34.150Z,976.45
2017-10-01T07:26:34.199Z,976.50
2017-10-01T07:27:34.246Z,976.49
2017-10-01T07:28:34.293Z,976.47
2017-10-01T07:29:34.410Z,976.46
2017-10-01T07:30:34.388Z,976.51
2017-10-01T07:31:34.437Z,976.48
2017-10-01T07:32:34.484Z,976.49
2017-10-01T07:33:34.533Z,976.51
2017-10-01T07:34:34.665Z,976.51
2017-10-01T07:35:34.630Z,976.50
2017-10-01T07:36:34.682Z,976.52
2017-10-01T07:37:34.725Z,976.55
2017-10-01T07:38:34.775Z,976.56
2017-10-01T07:39:34.897Z,976.52
2017-10-01T07:40:34.869Z,976.53
2017-10-01T07:41:34.920Z,976.54
2017-10-01T07:42:34.970Z,976.56
2017-10-01T07:43:35.014Z,976.59
2017-10-01T07:44:35.148Z,976.56
2017-10-01T07:45:35.115Z,976.55
2017-10-01T07:46:35.163Z,976.58
2017-10-01T07:47:35.205Z,976.57
2017-10-01T07:48:35.255Z,976.59
2017-10-01T07:49:35.367Z,976.56
2017-10-01T07:50:35.415Z,976.60
2017-10-01T07:51:35.401Z,976.60
2017-10-01T07:52:35.447Z,976.58
2017-10-01T07:53:35.497Z,976.62
2017-10-01T07:54:35.544Z,976.64
2017-10-01T07:55:35.656Z,976.64
2017-10-01T07:56:35.665Z,976.62
2017-10-01T07:57:35.689Z,976.64
2017-10-01T07:58:35.737Z,976.64
2017-10-01T07:59:35.785Z,976.64
2017-10-01T08:00:35.916Z,976.70
2017-10-01T08:01:35.883Z,976.68
2017-10-01T08:02:35.930Z,976.69
2017-10-01T08:03:35.979Z,976.74
2017-10-01T08:04:36.028Z,976.74
2017-10-01T08:05:36.147Z,976.70
2017-10-01T08:06:36.188Z,976.73
2017-10-01T08:07:36.172Z,976.75
2017-10-01T08:08:36.220Z,976.76
2017-10-01T08:09:36.271Z,976.78
2017-10-01T08:10:36.316Z,976.79
2017-10-01T08:11:36.430Z,976.78
2017-10-01T08:12:36.418Z,976.78
2017-10-01T08:13:36.462Z,976.82
2017-10-01T08:14:36.509Z,976.81
2017-10-01T08:15:36.558Z,976.79
2017-10-01T08:16:36.746Z,976.78
2017-10-01T08:17:36.656Z,976.75
2017-10-01T08:18:36.712Z,976.72
2017-10-01T08:19:36.753Z,976.72
2017-10-01T08:20:36.810Z,976.78
2017-10-01T08:21:36.918Z,976.78
2017-10-01T08:22:36.902Z,976.76
2017-10-01T08:23:36.946Z,976.73
2017-10-01T08:24:36.996Z,976.77
2017-10-01T08:25:37.046Z,976.78
2017-10-01T08:26:37.174Z,976.80
2017-10-01T08:27:37.146Z,976.82
2017-10-01T08:28:37.192Z,976.78
2017-10-01T08:29:37.241Z,976.80
2017-10-01T08:30:37.298Z,976.81
2017-10-01T08:31:37.407Z,976.81
2017-10-01T08:32:37.453Z,976.81
2017-10-01T08:33:37.442Z,976.80
2017-10-01T08:34:37.483Z,976.83
2017-10-01T08:35:37.539Z,976.86
2017-10-01T08:36:37.584Z,976.82
2017-10-01T08:37:37.695Z,976.82
2017-10-01T08:38:37.682Z,976.84
2017-10-01T08:39:37.733Z,976.82
2017-10-01T08:40:37.781Z,976.81
2017-10-01T08:41:37.830Z,976.79
2017-10-01T08:42:37.940Z,976.81
2017-10-01T08:43:37.929Z,976.80
2017-10-01T08:44:37.976Z,976.85
2017-10-01T08:45:38.023Z,976.88
2017-10-01T08:46:38.075Z,976.86
2017-10-01T08:47:38.206Z,976.84
2017-10-01T08:48:38.173Z,976.86
2017-10-01T08:49:38.231Z,976.84
2017-10-01T08:50:38.269Z,976.88
2017-10-01T08:51:38.319Z,976.86
2017-10-01T08:52:38.454Z,976.86
2017-10-01T08:53:38.417Z,976.87
2017-10-01T08:54:38.467Z,976.83
2017-10-01T08:55:38.518Z,976.86
2017-10-01T08:56:38.569Z,976.86
2017-10-01T08:57:38.678Z,976.89
2017-10-01T08:58:38.728Z,976.88
2017-10-01T08:59:38.716Z,976.89
2017-10-01T09:00:38.763Z,976.91
2017-10-01T09:01:38.812Z,976.88
2017-10-01T09:02:38.862Z,976.86
2017-10-01T09:03:38.977Z,976.87
2017-10-01T09:04:38.963Z,976.87
2017-10-01T09:05:39.012Z,976.86
2017-10-01T09:06:39.059Z,976.81
2017-10-01T09:07:39.110Z,976.81
2017-10-01T09:08:39.227Z,976.79
2017-10-01T09:09:39.209Z,976.77
2017-10-01T09:10:39.259Z,976.78
2017-10-01T09:11:39.311Z,976.77
2017-10-01T09:12:39.360Z,976.74
2017-10-01T09:13:39.503Z,976.79
2017-10-01T09:14:39.459Z,976.74
2017-10-01T09:15:39.508Z,976.70
2017-10-01T09:16:39.560Z,976.69
2017-10-01T09:17:39.609Z,976.69
2017-10-01T09:18:39.725Z,976.71
2017-10-01T09:19:39.774Z,976.67
2017-10-01T09:20:39.760Z,976.70
2017-10-01T09:21:39.809Z,976.69
2017-10-01T09:22:39.858Z,976.67
2017-10-01T09:23:39.908Z,976.65
2017-10-01T09:24:40.024Z,976.62
2017-10-01T09:25:40.009Z,976.65
2017-10-01T09:26:40.059Z,976.59
2017-10-01T09:27:40.111Z,976.61
2017-10-01T09:28:40.160Z,976.58
2017-10-01T09:29:40.276Z,976.63
2017-10-01T09:30:40.276Z,976.62
2017-10-01T09:31:40.311Z,976.61
2017-10-01T09:32:40.360Z,976.57
2017-10-01T09:33:40.419Z,976.55
2017-10-01T09:34:40.525Z,976.54
2017-10-01T09:35:40.514Z,976.54
2017-10-01T09:36:40.560Z,976.52
2017-10-01T09:37:40.612Z,976.52
2017-10-01T09:38:40.666Z,976.50
2017-10-01T09:39:40.780Z,976.51
2017-10-01T09:40:40.765Z,976.50
2017-10-01T09:41:40.812Z,976.45
2017-10-01T09:42:40.866Z,976.47
2017-10-01T09:43:40.919Z,976.46
2017-10-01T09:44:41.047Z,976.46
2017-10-01T09:45:41.017Z,976.47
2017-10-01T09:46:41.067Z,976.49
2017-10-01T09:47:41.116Z,976.45
2017-10-01T09:48:41.167Z,976.44
2017-10-01T09:49:41.284Z,976.40
2017-10-01T09:50:41.331Z,976.40
2017-10-01T09:51:41.319Z,976.38
2017-10-01T09:52:41.371Z,976.42
2017-10-01T09:53:41.420Z,976.38
2017-10-01T09:54:41.470Z,976.40
2017-10-01T09:55:41.585Z,976.37
2017-10-01T09:56:41.571Z,976.42
2017-10-01T09:57:41.622Z,976.41
2017-10-01T09:58:41.670Z,976.43
2017-10-01T09:59:41.721Z,976.41
2017-10-01T10:00:41.834Z,976.41
2017-10-01T10:01:41.820Z,976.42
2017-10-01T10:02:41.869Z,976.38
2017-10-01T10:03:41.921Z,976.41
2017-10-01T10:04:41.976Z,976.45
2017-10-01T10:05:42.083Z,976.43
2017-10-01T10:06:42.074Z,976.48
2017-10-01T10:07:42.118Z,976.49
2017-10-01T10:08:42.171Z,976.44
2017-10-01T10:09:42.223Z,976.47
2017-10-01T10:10:42.349Z,976.42
2017-10-01T10:11:42.319Z,976.43
2017-10-01T10:12:42.371Z,976.43
2017-10-01T10:13:42.417Z,976.37
2017-10-01T10:14:42.473Z,976.37
2017-10-01T10:15:42.593Z,976.39
2017-10-01T10:16:42.567Z,976.39
2017-10-01T10:17:42.615Z,976.39
2017-10-01T10:18:42.667Z,976.39
2017-10-01T10:19:42.719Z,976.38
2017-10-01T10:20:42.834Z,976.36
2017-10-01T10:21:42.884Z,976.40
2017-10-01T10:22:42.861Z,976.39
2017-10-01T10:23:42.916Z,976.38
2017-10-01T10:24:42.963Z,976.41
2017-10-01T10:25:43.012Z,976.39
2017-10-01T10:26:43.126Z,976.37
2017-10-01T10:27:43.114Z,976.38
2017-10-01T10:28:43.160Z,976.37
2017-10-01T10:29:43.209Z,976.34
2017-10-01T10:30:43.259Z,976.31
2017-10-01T10:31:43.375Z,976.30
2017-10-01T10:32:43.361Z,976.31
2017-10-01T10:33:43.407Z,976.27
2017-10-01T10:34:43.456Z,976.32
2017-10-01T10:35:43.506Z,976.31
2017-10-01T10:36:43.629Z,976.31
2017-10-01T10:37:43.604Z,976.33
2017-10-01T10:38:43.659Z,976.34
2017-10-01T10:39:43.703Z,976.31
2017-10-01T10:40:43.752Z,976.31
2017-10-01T10:41:43.884Z,976.32
2017-10-01T10:42:43.851Z,976.30
2017-10-01T10:43:43.900Z,976.31
2017-10-01T10:44:43.950Z,976.29
2017-10-01T10:45:43.999Z,976.32
2017-10-01T10:46:44.122Z,976.33
2017-10-01T10:47:44.097Z,976.30
2017-10-01T10:48:44.147Z,976.30
2017-10-01T10:49:44.194Z,976.31
2017-10-01T10:50:44.246Z,976.29
2017-10-01T10:51:44.377Z,976.30
2017-10-01T10:52:44.345Z,976.28
2017-10-01T10:53:44.393Z,976.29
2017-10-01T10:54:44.443Z,976.28
2017-10-01T10:55:44.490Z,976.28
2017-10-01T10:56:44.616Z,976.22
2017-10-01T10:57:44.591Z,976.17
2017-10-01T10:58:44.640Z,976.17
2017-10-01T10:59:44.690Z,976.16
2017-10-01T11:00:44.739Z,976.15
2017-10-01T11:01:44.873Z,976.14
2017-10-01T11:02:44.838Z,976.16
2017-10-01T11:03:44.884Z,976.12
2017-10-01T11:04:44.938Z,976.13
2017-10-01T11:05:44.988Z,976.13
2017-10-01T11:06:45.115Z,976.12
2017-10-01T11:07:45.090Z,976.09
2017-10-01T11:08:45.138Z,976.07
2017-10-01T11:09:45.188Z,976.07
2017-10-01T11:10:45.237Z,976.08
2017-10-01T11:11:45.348Z,976.09
2017-10-01T11:12:45.403Z,976.09
2017-10-01T11:13:45.388Z,976.07
2017-10-01T11:14:45.439Z,976.08
2017-10-01T11:15:45.487Z,976.05
2017-10-01T11:16:45.539Z,976.08
2017-10-01T11:17:45.653Z,976.03
2017-10-01T11:18:45.638Z,976.04
2017-10-01T11:19:45.689Z,976.01
2017-10-01T11:20:45.745Z,976.05
2017-10-01T11:21:45.793Z,976.06
2017-10-01T11:22:45.925Z,976.07
2017-10-01T11:23:45.892Z,976.08
2017-10-01T11:24:45.948Z,976.12
2017-10-01T11:25:46.003Z,976.07
2017-10-01T11:26:46.046Z,976.10
2017-10-01T11:27:46.170Z,976.09
2017-10-01T11:28:46.226Z,976.02
2017-10-01T11:29:46.204Z,976.03
2017-10-01T11:30:46.253Z,976.00
2017-10-01T11:31:46.308Z,975.99
2017-10-01T11:32:46.367Z,975.99
2017-10-01T11:33:46.491Z,975.96
2017-10-01T11:34:46.461Z,976.01
2017-10-01T11:35:46.521Z,976.01
2017-10-01T11:36:46.569Z,975.99
2017-10-01T11:37:46.622Z,976.00
2017-10-01T11:38:46.738Z,975.97
2017-10-01T11:39:46.731Z,975.96
2017-10-01T11:40:46.785Z,975.93
2017-10-01T11:41:46.838Z,975.98
2017-10-01T11:42:46.891Z,975.96
2017-10-01T11:43:47.009Z,975.98
2017-10-01T11:44:46.999Z,975.97
2017-10-01T11:45:47.055Z,975.92
2017-10-01T11:46:47.109Z,975.92
2017-10-01T11:47:47.164Z,975.89
2017-10-01T11:48:47.283Z,975.82
2017-10-01T11:49:47.273Z,975.82
2017-10-01T11:50:47.328Z,975.77
2017-10-01T11:51:47.388Z,975.74
2017-10-01T11:52:47.455Z,975.77
2017-10-01T11:53:47.571Z,975.77
2017-10-01T11:54:47.552Z,975.75
2017-10-01T11:55:47.607Z,975.71
2017-10-01T11:56:47.664Z,975.68
2017-10-01T11:57:47.724Z,975.66
2017-10-01T11:58:47.839Z,975.66
2017-10-01T11:59:47.893Z,975.61
2017-10-01T12:00:47.890Z,975.64
2017-10-01T12:01:47.942Z,975.63
2017-10-01T12:02:48.025Z,975.61
2017-10-01T12:03:48.054Z,975.61
2017-10-01T12:04:48.175Z,975.62
2017-10-01T12:05:48.162Z,975.55
2017-10-01T12:06:48.214Z,975.55
2017-10-01T12:07:48.275Z,975.56
2017-10-01T12:08:48.324Z,975.54
2017-10-01T12:09:48.453Z,975.53
2017-10-01T12:10:48.431Z,975.48
2017-10-01T12:11:48.486Z,975.50
2017-10-01T12:12:48.543Z,975.47
2017-10-01T12:13:48.595Z,975.50
2017-10-01T12:14:48.732Z,975.50
2017-10-01T12:15:48.699Z,975.51
2017-10-01T12:16:48.754Z,975.47
2017-10-01T12:17:48.806Z,975.46
2017-10-01T12:18:48.855Z,975.45
2017-10-01T12:19:48.976Z,975.44
2017-10-01T12:20:49.028Z,975.48
2017-10-01T12:21:49.016Z,975.50
2017-10-01T12:22:49.074Z,975.49
2017-10-01T12:23:49.124Z,975.54
2017-10-01T12:24:49.241Z,975.52
2017-10-01T12:25:49.293Z,975.53
2017-10-01T12:26:49.281Z,975.56
2017-10-01T12:27:49.335Z,975.56
2017-10-01T12:28:49.393Z,975.55